createdAt,value
2022-09-10T00:01:07.040Z,5.17
2022-09-10T00:04:15.443Z,5.10
2022-09-10T00:07:19.558Z,4.80
2022-09-10T00:10:24.085Z,7.57
2022-09-10T00:13:27.696Z,5.20
2022-09-10T00:16:32.735Z,4.90
2022-09-10T00:19:37.776Z,4.70
2022-09-10T00:22:41.650Z,4.90
2022-09-10T00:25:45.293Z,4.90
2022-09-10T00:28:50.586Z,4.70
2022-09-10T00:31:54.899Z,4.43
2022-09-10T00:35:01.368Z,4.63
2022-09-10T00:38:05.913Z,4.57
2022-09-10T00:41:10.102Z,5.23
2022-09-10T00:45:02.182Z,4.70
2022-09-10T00:48:13.107Z,4.70
2022-09-10T00:51:19.305Z,4.90
2022-09-10T00:54:28.270Z,4.90
2022-09-10T00:57:32.301Z,4.17
2022-09-10T01:00:36.761Z,4.90
2022-09-10T01:03:42.019Z,5.30
2022-09-10T01:06:55.829Z,5.40
2022-09-10T01:10:09.582Z,4.60
2022-09-10T01:13:32.997Z,4.93
2022-09-10T01:16:49.639Z,5.43
2022-09-10T01:20:40.519Z,5.27
2022-09-10T01:24:50.140Z,5.87
2022-09-10T01:28:00.932Z,5.50
2022-09-10T01:31:15.841Z,5.47
2022-09-10T01:34:27.954Z,5.80
2022-09-10T01:37:34.662Z,5.60
2022-09-10T01:40:39.566Z,6.20
2022-09-10T01:43:44.619Z,5.80
2022-09-10T01:47:05.990Z,5.90
2022-09-10T01:50:24.166Z,4.90
2022-09-10T01:54:01.829Z,6.17
2022-09-10T01:57:19.733Z,5.47
2022-09-10T02:00:28.048Z,6.23
2022-09-10T02:03:34.227Z,5.93
2022-09-10T02:06:45.923Z,5.53
2022-09-10T02:09:50.785Z,6.33
2022-09-10T02:12:55.503Z,5.97
2022-09-10T02:16:03.508Z,5.60
2022-09-10T02:19:08.813Z,6.17
2022-09-10T02:22:12.456Z,6.13
2022-09-10T02:25:16.435Z,5.87
2022-09-10T02:28:20.467Z,6.20
2022-09-10T02:31:25.847Z,6.43
2022-09-10T02:34:30.618Z,6.63
2022-09-10T02:37:34.160Z,6.70
2022-09-10T02:40:39.174Z,6.50
2022-09-10T02:43:42.778Z,7.67
2022-09-10T02:46:47.759Z,6.90
2022-09-10T02:49:51.347Z,6.43
2022-09-10T02:52:55.543Z,6.80
2022-09-10T02:55:59.660Z,6.33
2022-09-10T02:59:04.183Z,6.90
2022-09-10T03:02:09.811Z,6.53
2022-09-10T03:05:13.771Z,7.17
2022-09-10T03:08:17.442Z,7.13
2022-09-10T03:11:23.984Z,6.97
2022-09-10T03:14:30.365Z,7.10
2022-09-10T03:17:35.623Z,6.93
2022-09-10T03:20:39.442Z,6.80
2022-09-10T03:23:44.910Z,6.87
2022-09-10T03:26:48.580Z,8.00
2022-09-10T03:29:52.231Z,7.50
2022-09-10T03:32:57.872Z,7.00
2022-09-10T03:36:02.776Z,7.43
2022-09-10T03:39:06.576Z,7.37
2022-09-10T03:42:11.249Z,7.50
2022-09-10T03:45:14.879Z,7.20
2022-09-10T03:48:21.603Z,7.40
2022-09-10T03:51:25.197Z,7.07
2022-09-10T03:54:28.774Z,7.67
2022-09-10T03:57:32.594Z,7.83
2022-09-10T04:00:37.235Z,7.40
2022-09-10T04:03:42.285Z,7.20
2022-09-10T04:06:45.859Z,7.83
2022-09-10T04:09:49.439Z,7.67
2022-09-10T04:12:54.262Z,8.50
2022-09-10T04:15:57.740Z,8.20
2022-09-10T04:19:02.730Z,8.17
2022-09-10T04:22:06.786Z,8.50
2022-09-10T04:25:10.765Z,8.50
2022-09-10T04:28:14.813Z,8.03
2022-09-10T04:31:20.297Z,8.63
2022-09-10T04:34:25.438Z,8.67
2022-09-10T04:37:29.084Z,8.63
2022-09-10T04:40:32.798Z,10.00
2022-09-10T04:43:36.728Z,10.20
2022-09-10T04:46:41.982Z,10.27
2022-09-10T04:49:46.908Z,9.33
2022-09-10T04:52:50.606Z,11.53
2022-09-10T04:55:55.683Z,10.60
2022-09-10T04:58:59.263Z,13.23
2022-09-10T05:02:03.852Z,11.40
2022-09-10T05:05:10.038Z,11.83
2022-09-10T05:08:14.219Z,11.27
2022-09-10T05:11:20.148Z,10.87
2022-09-10T05:14:25.475Z,12.37
2022-09-10T05:17:29.460Z,11.83
2022-09-10T05:20:35.015Z,12.50
2022-09-10T05:23:39.535Z,12.00
2022-09-10T05:26:44.082Z,11.70
2022-09-10T05:29:47.628Z,12.17
2022-09-10T05:32:53.341Z,12.77
2022-09-10T05:35:58.269Z,11.70
2022-09-10T05:39:04.704Z,10.80
2022-09-10T05:42:08.816Z,11.50
2022-09-10T05:45:12.688Z,11.73
2022-09-10T05:48:16.272Z,10.80
2022-09-10T05:51:21.647Z,10.73
2022-09-10T05:54:25.392Z,12.70
2022-09-10T05:57:29.160Z,12.10
2022-09-10T06:00:33.779Z,12.47
2022-09-10T06:03:38.055Z,12.30
2022-09-10T06:06:42.983Z,11.73
2022-09-10T06:09:46.705Z,11.93
2022-09-10T06:12:52.107Z,12.23
2022-09-10T06:15:56.419Z,12.70
2022-09-10T06:19:00.572Z,13.17
2022-09-10T06:22:05.797Z,12.50
2022-09-10T06:25:10.895Z,13.17
2022-09-10T06:28:14.407Z,12.90
2022-09-10T06:31:19.723Z,12.93
2022-09-10T06:34:23.300Z,13.57
2022-09-10T06:37:28.353Z,14.27
2022-09-10T06:40:33.034Z,13.90
2022-09-10T06:43:38.010Z,13.57
2022-09-10T06:50:08.983Z,13.13
2022-09-10T06:53:13.964Z,13.67
2022-09-10T06:56:18.116Z,12.50
2022-09-10T06:59:21.887Z,13.47
2022-09-10T07:02:25.805Z,12.73
2022-09-10T07:05:29.558Z,12.63
2022-09-10T07:08:34.585Z,12.93
2022-09-10T07:11:41.592Z,13.17
2022-09-10T07:14:45.455Z,12.87
2022-09-10T07:17:49.086Z,11.87
2022-09-10T07:20:52.863Z,11.63
2022-09-10T07:24:01.368Z,13.03
2022-09-10T07:27:05.126Z,13.13
2022-09-10T07:30:10.268Z,12.83
2022-09-10T07:33:13.922Z,12.77
2022-09-10T07:36:19.352Z,11.93
2022-09-10T07:39:25.937Z,12.50
2022-09-10T07:42:29.706Z,12.67
2022-09-10T07:45:35.584Z,12.00
2022-09-10T07:48:39.538Z,11.80
2022-09-10T07:51:43.191Z,12.60
2022-09-10T07:54:48.212Z,13.17
2022-09-10T07:57:51.740Z,13.30
2022-09-10T08:00:55.390Z,13.00
2022-09-10T08:04:00.451Z,13.07
2022-09-10T08:07:04.149Z,13.77
2022-09-10T08:10:11.708Z,13.30
2022-09-10T08:13:15.483Z,12.97
2022-09-10T08:16:23.037Z,14.03
2022-09-10T08:19:26.705Z,13.97
2022-09-10T08:22:31.775Z,13.70
2022-09-10T08:25:38.089Z,12.67
2022-09-10T08:28:43.340Z,13.40
2022-09-10T08:31:47.530Z,12.30
2022-09-10T08:34:52.523Z,13.13
2022-09-10T08:37:56.160Z,14.13
2022-09-10T08:41:02.612Z,12.93
2022-09-10T08:44:16.211Z,13.10
2022-09-10T08:47:31.153Z,13.50
2022-09-10T08:50:46.113Z,13.80
2022-09-10T08:54:00.544Z,13.50
2022-09-10T08:57:16.415Z,13.00
2022-09-10T09:00:23.450Z,13.80
2022-09-10T09:03:35.137Z,14.53
2022-09-10T09:06:46.531Z,13.87
2022-09-10T09:09:52.927Z,13.70
2022-09-10T09:13:39.298Z,13.33
2022-09-10T09:17:07.074Z,13.70
2022-09-10T09:20:18.128Z,14.47
2022-09-10T09:23:25.185Z,13.83
2022-09-10T09:26:36.603Z,13.90
2022-09-10T09:29:48.895Z,13.87
2022-09-10T09:32:52.675Z,13.10
2022-09-10T09:36:01.437Z,13.27
2022-09-10T09:39:16.042Z,14.47
2022-09-10T09:42:31.969Z,13.23
2022-09-10T09:45:39.860Z,13.07
2022-09-10T09:48:45.157Z,13.90
2022-09-10T09:51:51.855Z,13.17
2022-09-10T09:55:16.119Z,13.43
2022-09-10T09:58:35.472Z,13.57
2022-09-10T10:01:43.550Z,13.70
2022-09-10T10:05:01.984Z,14.87
2022-09-10T10:08:05.714Z,15.63
2022-09-10T10:11:10.003Z,16.70
2022-09-10T10:14:33.668Z,17.57
2022-09-10T10:17:41.458Z,18.13
2022-09-10T10:20:45.030Z,17.50
2022-09-10T10:23:49.646Z,15.77
2022-09-10T10:26:53.253Z,14.60
2022-09-10T10:30:01.709Z,12.10
2022-09-10T10:33:17.425Z,12.73
2022-09-10T10:36:29.423Z,13.93
2022-09-10T10:40:08.613Z,12.87
2022-09-10T10:43:29.822Z,13.00
2022-09-10T10:46:48.681Z,13.93
2022-09-10T10:50:09.058Z,15.80
2022-09-10T10:53:36.998Z,16.73
2022-09-10T10:56:48.824Z,17.77
2022-09-10T11:00:06.426Z,18.37
2022-09-10T11:03:21.650Z,19.30
2022-09-10T11:06:36.311Z,16.73
2022-09-10T11:09:46.986Z,13.73
2022-09-10T11:12:59.060Z,13.57
2022-09-10T11:16:09.704Z,14.30
2022-09-10T11:19:26.377Z,14.03
2022-09-10T11:22:40.511Z,13.43
2022-09-10T11:26:00.523Z,14.93
2022-09-10T11:29:25.430Z,14.57
2022-09-10T11:32:36.675Z,13.10
2022-09-10T11:35:46.881Z,15.23
2022-09-10T11:39:09.332Z,12.53
2022-09-10T11:42:21.207Z,10.80
2022-09-10T11:45:46.796Z,11.97
2022-09-10T11:48:59.659Z,11.93
2022-09-10T11:52:04.317Z,11.00
2022-09-10T11:55:17.798Z,10.77
2022-09-10T11:58:34.063Z,10.63
2022-09-10T12:02:02.856Z,10.10
2022-09-10T12:05:24.148Z,10.90
2022-09-10T12:08:49.691Z,10.13
2022-09-10T12:12:08.038Z,9.60
2022-09-10T12:15:20.789Z,9.40
2022-09-10T12:18:29.971Z,8.37
2022-09-10T12:21:40.178Z,7.97
2022-09-10T12:24:56.497Z,6.33
2022-09-10T12:28:07.887Z,7.10
2022-09-10T12:31:14.233Z,7.23
2022-09-10T12:34:20.704Z,6.73
2022-09-10T12:37:28.722Z,7.67
2022-09-10T12:40:49.650Z,7.00
2022-09-10T12:43:59.822Z,7.23
2022-09-10T12:47:50.483Z,7.17
2022-09-10T12:51:00.570Z,6.50
2022-09-10T12:54:29.703Z,5.47
2022-09-10T12:57:50.775Z,4.80
2022-09-10T13:01:18.596Z,5.10
2022-09-10T13:04:29.621Z,5.23
2022-09-10T13:07:41.728Z,5.40
2022-09-10T13:10:50.971Z,6.20
2022-09-10T13:14:00.774Z,5.80
2022-09-10T13:17:06.772Z,6.43
2022-09-10T13:20:31.991Z,5.70
2022-09-10T13:23:56.931Z,5.60
2022-09-10T13:27:20.703Z,6.23
2022-09-10T13:30:25.387Z,5.77
2022-09-10T13:33:38.030Z,7.17
2022-09-10T13:37:03.339Z,6.20
2022-09-10T13:40:39.855Z,6.20
2022-09-10T13:44:12.987Z,6.33
2022-09-10T13:47:23.714Z,6.63
2022-09-10T13:50:37.779Z,6.73
2022-09-10T13:53:47.264Z,6.23
2022-09-10T13:56:52.568Z,6.00
2022-09-10T14:00:08.174Z,5.97
2022-09-10T14:03:24.977Z,5.90
2022-09-10T14:06:30.966Z,6.40
2022-09-10T14:09:36.418Z,5.40
2022-09-10T14:12:41.063Z,8.80
2022-09-10T14:15:54.427Z,9.90
2022-09-10T14:19:03.103Z,9.87
2022-09-10T14:22:10.173Z,9.43
2022-09-10T14:25:32.838Z,9.23
2022-09-10T14:28:37.218Z,7.13
2022-09-10T14:31:42.235Z,7.93
2022-09-10T14:34:47.395Z,9.43
2022-09-10T14:37:52.476Z,11.87
2022-09-10T14:41:04.369Z,10.67
2022-09-10T14:44:29.790Z,11.30
2022-09-10T14:47:37.217Z,10.80
2022-09-10T14:50:43.874Z,10.27
2022-09-10T14:53:53.747Z,10.23
2022-09-10T14:57:01.998Z,10.27
2022-09-10T15:00:06.835Z,10.90
2022-09-10T15:03:17.836Z,11.70
2022-09-10T15:06:25.626Z,11.43
2022-09-10T15:09:32.067Z,10.90
2022-09-10T15:12:38.019Z,9.43
2022-09-10T15:15:41.679Z,9.13
2022-09-10T15:18:45.399Z,9.10
2022-09-10T15:21:49.734Z,7.20
2022-09-10T15:25:11.721Z,6.27
2022-09-10T15:28:15.503Z,6.50
2022-09-10T15:31:19.386Z,6.37
2022-09-10T15:34:23.066Z,7.70
2022-09-10T15:37:27.137Z,6.93
2022-09-10T15:40:32.890Z,8.10
2022-09-10T15:43:41.386Z,8.60
2022-09-10T15:46:45.517Z,8.00
2022-09-10T15:49:49.299Z,9.10
2022-09-10T15:52:52.974Z,7.90
2022-09-10T15:56:02.461Z,6.83
2022-09-10T15:59:08.658Z,7.20
2022-09-10T16:02:13.182Z,7.20
2022-09-10T16:05:17.031Z,6.20
2022-09-10T16:08:20.614Z,5.90
2022-09-10T16:11:26.612Z,5.13
2022-09-10T16:14:34.199Z,5.57
2022-09-10T16:17:37.714Z,5.87
2022-09-10T16:20:41.389Z,6.50
2022-09-10T16:23:46.365Z,8.27
2022-09-10T16:26:51.364Z,9.37
2022-09-10T16:29:54.879Z,10.37
2022-09-10T16:32:58.741Z,10.47
2022-09-10T16:36:05.821Z,10.67
2022-09-10T16:39:12.934Z,11.70
2022-09-10T16:42:18.166Z,11.87
2022-09-10T16:45:22.235Z,12.57
2022-09-10T16:48:26.051Z,12.70
2022-09-10T16:51:30.166Z,13.17
2022-09-10T16:54:33.997Z,13.03
2022-09-10T16:57:39.131Z,14.13
2022-09-10T17:00:42.806Z,14.13
2022-09-10T17:03:49.884Z,14.87
2022-09-10T17:06:53.422Z,13.70
2022-09-10T17:10:00.709Z,14.17
2022-09-10T17:13:06.144Z,14.47
2022-09-10T17:16:23.695Z,13.27
2022-09-10T17:19:28.431Z,15.50
2022-09-10T17:22:32.043Z,15.67
2022-09-10T17:25:36.523Z,15.40
2022-09-10T17:28:41.824Z,14.33
2022-09-10T17:31:47.687Z,13.47
2022-09-10T17:34:51.610Z,13.00
2022-09-10T17:37:55.225Z,13.57
2022-09-10T17:41:02.341Z,12.63
2022-09-10T17:44:08.015Z,14.60
2022-09-10T17:47:12.295Z,14.97
2022-09-10T17:50:16.015Z,16.07
2022-09-10T17:53:20.631Z,16.20
2022-09-10T17:56:27.558Z,16.70
2022-09-10T17:59:32.704Z,16.07
2022-09-10T18:02:36.278Z,15.80
2022-09-10T18:05:40.655Z,16.37
2022-09-10T18:08:44.586Z,14.63
2022-09-10T18:11:48.279Z,13.90
2022-09-10T18:14:53.227Z,14.50
2022-09-10T18:17:59.614Z,13.67
2022-09-10T18:21:16.600Z,12.97
2022-09-10T18:24:23.699Z,13.17
2022-09-10T18:27:27.944Z,15.27
2022-09-10T18:30:33.141Z,13.63
2022-09-10T18:33:38.370Z,13.03
2022-09-10T18:36:44.051Z,12.87
2022-09-10T18:39:47.984Z,13.17
2022-09-10T18:42:51.689Z,12.07
2022-09-10T18:45:56.600Z,12.90
2022-09-10T18:49:02.390Z,11.87
2022-09-10T18:52:07.063Z,12.90
2022-09-10T18:55:11.250Z,13.67
2022-09-10T18:58:14.807Z,11.83
2022-09-10T19:01:21.194Z,11.50
2022-09-10T19:04:29.635Z,11.67
2022-09-10T19:07:33.230Z,11.63
2022-09-10T19:10:36.805Z,11.57
2022-09-10T19:13:40.502Z,11.03
2022-09-10T19:16:47.142Z,11.60
2022-09-10T19:19:50.861Z,10.73
2022-09-10T19:22:54.558Z,11.10
2022-09-10T19:25:58.963Z,10.77
2022-09-10T19:29:03.971Z,10.10
2022-09-10T19:32:09.492Z,11.07
2022-09-10T19:35:14.350Z,11.77
2022-09-10T19:38:36.600Z,10.80
2022-09-10T19:41:43.251Z,11.27
2022-09-10T19:44:46.872Z,10.50
2022-09-10T19:47:51.823Z,11.03
2022-09-10T19:50:55.608Z,11.00
2022-09-10T19:54:00.547Z,10.93
2022-09-10T19:57:04.255Z,10.20
2022-09-10T20:00:20.622Z,10.90
2022-09-10T20:03:36.620Z,11.27
2022-09-10T20:06:41.218Z,11.60
2022-09-10T20:09:44.870Z,13.03
2022-09-10T20:12:48.450Z,13.23
2022-09-10T20:15:52.111Z,13.97
2022-09-10T20:18:57.779Z,14.03
2022-09-10T20:22:01.915Z,13.37
2022-09-10T20:25:06.365Z,14.07
2022-09-10T20:28:10.000Z,14.30
2022-09-10T20:31:14.773Z,16.37
2022-09-10T20:34:22.326Z,15.53
2022-09-10T20:37:26.027Z,17.50
2022-09-10T20:40:29.655Z,15.87
2022-09-10T20:43:33.593Z,17.63
2022-09-10T20:46:37.957Z,18.03
2022-09-10T20:49:42.995Z,17.87
2022-09-10T20:52:46.586Z,18.70
2022-09-10T20:55:51.576Z,19.10
2022-09-10T20:58:55.252Z,18.43
2022-09-10T21:01:58.938Z,18.30
2022-09-10T21:05:04.026Z,18.30
2022-09-10T21:08:07.994Z,18.97
2022-09-10T21:11:15.262Z,17.97
2022-09-10T21:14:19.284Z,18.67
2022-09-10T21:17:22.915Z,19.40
2022-09-10T21:20:28.430Z,19.27
2022-09-10T21:23:32.096Z,18.70
2022-09-10T21:26:39.287Z,19.00
2022-09-10T21:29:42.902Z,18.03
2022-09-10T21:32:46.583Z,18.70
2022-09-10T21:36:02.222Z,19.60
2022-09-10T21:39:09.872Z,19.33
2022-09-10T21:42:13.436Z,20.00
2022-09-10T21:45:26.225Z,19.47
2022-09-10T21:48:31.739Z,18.77
2022-09-10T21:51:37.018Z,18.83
2022-09-10T21:54:40.584Z,19.47
2022-09-10T21:57:44.244Z,19.17
2022-09-10T22:00:48.089Z,20.47
2022-09-10T22:03:53.580Z,20.10
2022-09-10T22:06:58.751Z,19.50
2022-09-10T22:10:02.351Z,19.40
2022-09-10T22:13:06.173Z,20.17
2022-09-10T22:16:12.572Z,19.47
2022-09-10T22:19:22.446Z,19.73
2022-09-10T22:22:28.063Z,18.90
2022-09-10T22:25:33.298Z,18.90
2022-09-10T22:28:38.374Z,18.93
2022-09-10T22:31:42.016Z,19.37
2022-09-10T22:34:46.983Z,18.43
2022-09-10T22:37:55.699Z,19.23
2022-09-10T22:41:03.399Z,19.97
2022-09-10T22:44:08.679Z,20.33
2022-09-10T22:47:12.310Z,19.87
2022-09-10T22:50:16.457Z,19.90
2022-09-10T22:53:21.844Z,20.93
2022-09-10T22:56:27.694Z,20.90
2022-09-10T22:59:37.329Z,20.47
2022-09-10T23:02:41.114Z,21.27
2022-09-10T23:05:44.636Z,22.03
2022-09-10T23:08:52.427Z,22.33
2022-09-10T23:11:56.017Z,23.20
2022-09-10T23:14:59.615Z,21.33
2022-09-10T23:18:03.207Z,23.83
2022-09-10T23:21:07.281Z,24.20
2022-09-10T23:24:14.753Z,23.07
2022-09-10T23:27:18.593Z,22.03
2022-09-10T23:30:23.042Z,23.17
2022-09-10T23:33:26.628Z,23.20
2022-09-10T23:36:33.169Z,23.70
2022-09-10T23:39:39.527Z,21.87
2022-09-10T23:42:43.096Z,23.83
2022-09-10T23:45:46.657Z,23.87
2022-09-10T23:48:50.419Z,24.03
2022-09-10T23:51:54.390Z,22.33
2022-09-10T23:55:00.349Z,22.97
2022-09-10T23:58:03.996Z,24.17
